KTTD/TTD METAR and TAF weather

Enter ICAO airport designator
Station Type Date Time Source
KTTD METAR 2020/12/05 05:53 UTC NOAA

KTTD 050553Z AUTO 08026G34KT 10SM CLR 06/M01 A3033 RMK AO2 PK WND 09038/0457 SLP271 T00561006 10078 20050 58008


Station Type Date Time Source
KTTD Decoded METAR 2020/12/05 05:53 UTC NOAA

PORTLAND-TROUTDALE AIRPORT, OR, United States (KTTD) 45-33N 122-25W 14M
Dec 05, 2020 - 12:53 AM EST / 2020.12.05 0553 UTC
Wind: from the E (080 degrees) at 30 MPH (26 KT) gusting to 39 MPH (34 KT):0
Visibility: 10 mile(s):0
Sky conditions: clear
Temperature: 42.1 F (5.6 C)
Dew Point: 30.9 F (-0.6 C)
Relative Humidity: 64%
Pressure (altimeter): 30.33 in. Hg (1027 hPa)
Pressure tendency: 0.02 inches (0.8 hPa) lower than three hours ago
ob: KTTD 050553Z AUTO 08026G34KT 10SM CLR 06/M01 A3033 RMK AO2 PK WND 09038/0457 SLP271 T00561006 10078 20050 58008
cycle: 6

Station Type Date Time Source
KTTD TAF 2020/12/05 06:36 UTC NOAA

TAF KTTD 050532Z 0506/0606 09027G37KT P6SM SKC
FM050900 09025G40KT P6SM FEW250
FM060000 08024G35KT P6SM -RA OVC050
FM060400 09020G30KT P6SM -RA OVC040

Example: see airport list